Time;durP1;ratioP1;P1;durP2;ratioP2;P2;SDS_P1;SDS_P2;PMS_P1;PMS_P2;Temp;Humidity;BMP_temperature;BMP_pressure;BME280_temperature;BME280_humidity;BME280_pressure;Samples;Min_cycle;Max_cycle;Signal;HPM_P1;HPM_P2
2023/06/04 00:02:02;;;;;;;10.43;6.93;;;13.90;99.90;;;;;;5050664;28;20471;-69
2023/06/04 00:04:29;;;;;;;9.43;6.37;;;13.90;99.90;;;;;;5050935;28;20459;-69
2023/06/04 00:06:57;;;;;;;9.20;5.70;;;13.80;99.90;;;;;;5050415;28;20813;-69
2023/06/04 00:09:24;;;;;;;6.60;5.90;;;13.80;99.90;;;;;;5051017;28;20896;-69
2023/06/04 00:11:51;;;;;;;7.83;6.37;;;13.70;99.90;;;;;;5050310;28;20617;-69
2023/06/04 00:14:18;;;;;;;5.43;4.13;;;13.70;99.90;;;;;;5050992;28;20805;-69
2023/06/04 00:16:45;;;;;;;6.50;5.53;;;13.70;99.90;;;;;;5050103;28;21179;-69
2023/06/04 00:19:13;;;;;;;9.67;4.63;;;13.70;99.90;;;;;;5050523;28;20990;-69
2023/06/04 00:21:40;;;;;;;8.10;5.80;;;13.70;99.90;;;;;;5049608;28;20483;-69
2023/06/04 00:24:07;;;;;;;10.23;6.27;;;13.60;99.90;;;;;;5050833;28;20543;-68
2023/06/04 00:26:34;;;;;;;10.73;7.30;;;13.60;99.90;;;;;;5050956;28;21189;-69
2023/06/04 00:29:02;;;;;;;10.30;8.13;;;13.50;99.90;;;;;;5049538;28;20541;-69
2023/06/04 00:31:28;;;;;;;12.70;8.20;;;13.40;99.90;;;;;;5050271;28;20495;-69
2023/06/04 00:33:55;;;;;;;15.27;8.47;;;13.40;99.90;;;;;;5050345;28;20479;-68
2023/06/04 00:36:23;;;;;;;12.30;7.37;;;13.40;99.90;;;;;;5050119;28;20955;-68
2023/06/04 00:38:50;;;;;;;10.47;7.53;;;13.40;99.90;;;;;;5049831;28;20486;-68
2023/06/04 00:41:17;;;;;;;9.90;7.10;;;13.30;99.90;;;;;;5049632;28;20477;-68
2023/06/04 00:43:45;;;;;;;10.20;7.20;;;13.30;99.90;;;;;;5049797;28;20494;-68
2023/06/04 00:46:17;;;;;;;8.57;6.40;;;13.30;99.90;;;;;;5050440;28;20509;-68
2023/06/04 00:48:44;;;;;;;8.03;6.40;;;13.30;99.90;;;;;;5049789;28;20479;-69
2023/06/04 00:51:12;;;;;;;7.13;5.60;;;13.20;99.90;;;;;;5049647;28;20463;-68
2023/06/04 00:53:40;;;;;;;7.90;4.90;;;13.20;99.90;;;;;;5049575;28;20455;-69
2023/06/04 00:56:07;;;;;;;7.47;5.57;;;13.20;99.90;;;;;;5050261;28;20463;-68
2023/06/04 00:58:39;;;;;;;5.20;4.70;;;13.10;99.90;;;;;;5049996;28;20889;-68
2023/06/04 01:01:11;;;;;;;6.23;4.50;;;13.10;99.90;;;;;;5049279;28;20466;-68
2023/06/04 01:03:43;;;;;;;5.77;4.80;;;13.10;99.90;;;;;;5050329;28;20981;-68
2023/06/04 01:06:21;;;;;;;6.00;4.80;;;13.00;99.90;;;;;;5049616;28;20882;-68
2023/06/04 01:08:51;;;;;;;6.27;4.90;;;13.00;99.90;;;;;;5049301;28;21056;-68
2023/06/04 01:11:17;;;;;;;7.20;5.30;;;13.00;99.90;;;;;;5049685;28;20459;-68
2023/06/04 01:13:44;;;;;;;6.50;5.23;;;12.90;99.90;;;;;;5049308;28;20464;-68
2023/06/04 01:16:14;;;;;;;6.40;4.27;;;12.90;99.90;;;;;;5049618;28;20462;-68
2023/06/04 01:18:44;;;;;;;5.93;5.17;;;12.90;99.90;;;;;;5049364;28;20475;-68
2023/06/04 01:21:18;;;;;;;6.93;5.00;;;12.90;99.90;;;;;;5048973;28;21028;-68
2023/06/04 01:23:58;;;;;;;5.93;5.00;;;12.90;99.90;;;;;;5049917;28;20876;-68
2023/06/04 01:26:26;;;;;;;6.17;5.57;;;12.80;99.90;;;;;;5050023;28;20459;-68
2023/06/04 01:28:54;;;;;;;8.07;4.70;;;12.80;99.90;;;;;;5049472;28;20861;-68
2023/06/04 01:31:22;;;;;;;5.60;4.20;;;12.80;99.90;;;;;;5049682;28;20460;-68
2023/06/04 01:33:51;;;;;;;9.00;5.47;;;12.80;99.90;;;;;;5049657;28;20958;-68
2023/06/04 01:36:18;;;;;;;5.10;4.60;;;12.70;99.90;;;;;;5050118;28;20455;-68
2023/06/04 01:38:45;;;;;;;5.77;4.90;;;12.70;99.90;;;;;;5049491;28;20491;-69
2023/06/04 01:41:13;;;;;;;6.00;5.43;;;12.70;99.90;;;;;;5049669;28;20545;-68
2023/06/04 01:43:40;;;;;;;6.23;4.40;;;12.60;99.90;;;;;;5049744;28;20486;-68
2023/06/04 01:46:06;;;;;;;5.57;4.57;;;12.60;99.90;;;;;;5049947;28;20490;-68
2023/06/04 01:48:33;;;;;;;7.63;4.93;;;12.60;99.90;;;;;;5050036;28;20510;-68
2023/06/04 01:51:00;;;;;;;6.10;4.90;;;12.60;99.90;;;;;;5049498;28;20551;-68
2023/06/04 01:53:27;;;;;;;6.47;4.90;;;12.60;99.90;;;;;;5050005;28;20532;-68
2023/06/04 01:55:54;;;;;;;6.13;4.40;;;12.50;99.90;;;;;;5049625;28;20463;-68
2023/06/04 01:58:23;;;;;;;5.23;4.73;;;12.50;99.90;;;;;;5050053;28;20558;-68
2023/06/04 02:00:52;;;;;;;6.37;4.90;;;12.50;99.90;;;;;;5049350;28;20464;-68
2023/06/04 02:03:20;;;;;;;5.97;4.57;;;12.50;99.90;;;;;;5049773;28;20550;-68
2023/06/04 02:05:47;;;;;;;6.60;4.23;;;12.40;99.90;;;;;;5048874;28;20475;-68
2023/06/04 02:08:18;;;;;;;5.30;4.23;;;12.40;99.90;;;;;;5030211;28;20476;-68
2023/06/04 02:10:46;;;;;;;6.77;4.77;;;12.40;99.90;;;;;;5029170;28;20472;-68
2023/06/04 02:13:13;;;;;;;5.67;4.73;;;12.40;99.90;;;;;;5031714;28;20463;-68
2023/06/04 02:15:41;;;;;;;7.23;5.23;;;12.40;99.90;;;;;;5034233;28;20521;-68
2023/06/04 02:18:16;;;;;;;5.30;4.43;;;12.40;99.90;;;;;;5026481;28;20574;-68
2023/06/04 02:20:44;;;;;;;6.00;4.20;;;12.30;99.90;;;;;;5034183;28;20493;-69
2023/06/04 02:23:11;;;;;;;5.10;4.43;;;12.30;99.90;;;;;;5053619;28;20479;-69
2023/06/04 02:25:38;;;;;;;5.30;4.47;;;12.30;99.90;;;;;;5053621;28;20463;-68
2023/06/04 02:28:05;;;;;;;7.50;5.00;;;12.20;99.90;;;;;;5053134;28;20489;-68
2023/06/04 02:30:32;;;;;;;4.80;4.33;;;12.20;99.90;;;;;;5053015;28;20462;-68
2023/06/04 02:33:01;;;;;;;5.07;4.30;;;12.20;99.90;;;;;;5053055;28;20459;-67
2023/06/04 02:35:28;;;;;;;5.30;4.80;;;12.20;99.90;;;;;;5053367;28;20905;-68
2023/06/04 02:37:56;;;;;;;9.33;4.83;;;12.20;99.90;;;;;;5052916;28;20582;-68
2023/06/04 02:40:23;;;;;;;6.30;4.37;;;12.10;99.90;;;;;;5052651;28;20466;-67
2023/06/04 02:42:49;;;;;;;4.77;3.93;;;12.10;99.90;;;;;;5052816;28;21037;-69
2023/06/04 02:45:16;;;;;;;6.13;4.80;;;12.10;99.90;;;;;;5052834;28;21266;-69
2023/06/04 02:47:43;;;;;;;6.87;4.27;;;12.00;99.90;;;;;;5052530;28;20483;-69
2023/06/04 02:50:12;;;;;;;5.03;4.53;;;12.00;99.90;;;;;;5052157;28;20459;-69
2023/06/04 02:52:39;;;;;;;5.03;4.60;;;12.00;99.90;;;;;;5052962;28;20448;-69
2023/06/04 02:55:08;;;;;;;5.30;4.70;;;12.00;99.90;;;;;;5052423;28;21030;-68
2023/06/04 02:57:35;;;;;;;4.40;4.00;;;12.00;99.90;;;;;;5052709;28;20900;-69
2023/06/04 03:00:09;;;;;;;4.70;4.10;;;11.90;99.90;;;;;;5051830;28;20498;-69
2023/06/04 03:02:37;;;;;;;5.90;4.13;;;11.90;99.90;;;;;;5052537;28;20529;-69
2023/06/04 03:05:04;;;;;;;6.57;4.83;;;11.90;99.90;;;;;;5052099;28;20464;-69
2023/06/04 03:07:32;;;;;;;10.30;4.50;;;11.90;99.90;;;;;;5052569;28;20479;-69
2023/06/04 03:09:59;;;;;;;5.30;4.80;;;11.90;99.90;;;;;;5051975;28;20463;-69
2023/06/04 03:12:26;;;;;;;4.73;4.33;;;11.80;99.90;;;;;;5052464;28;20583;-69
2023/06/04 03:14:53;;;;;;;5.13;4.63;;;11.80;99.90;;;;;;5052498;28;20471;-68
2023/06/04 03:17:19;;;;;;;4.77;4.27;;;11.80;99.90;;;;;;5052179;28;20495;-69
2023/06/04 03:19:47;;;;;;;4.63;4.00;;;11.80;99.90;;;;;;5043562;28;20955;-69
2023/06/04 03:22:14;;;;;;;5.13;4.40;;;11.70;99.90;;;;;;5031843;28;20225;-69
2023/06/04 03:24:42;;;;;;;4.60;4.15;;;11.80;99.90;;;;;;5031290;28;20464;-68
2023/06/04 03:27:11;;;;;;;4.63;3.67;;;11.80;99.90;;;;;;5031924;28;20233;-69
2023/06/04 03:29:38;;;;;;;5.20;4.40;;;11.70;99.90;;;;;;5031857;28;20673;-68
2023/06/04 03:32:06;;;;;;;6.13;4.37;;;11.70;99.90;;;;;;5031527;28;21148;-69
2023/06/04 03:34:32;;;;;;;5.60;4.30;;;11.70;99.90;;;;;;5032251;28;21042;-69
2023/06/04 03:37:00;;;;;;;5.30;4.17;;;11.70;99.90;;;;;;5031775;28;20464;-68
2023/06/04 03:39:27;;;;;;;4.40;3.92;;;11.70;99.90;;;;;;5031806;28;20561;-69
2023/06/04 03:41:55;;;;;;;4.55;4.00;;;11.70;99.90;;;;;;5031413;28;20209;-69
2023/06/04 03:44:22;;;;;;;4.70;3.83;;;11.70;99.90;;;;;;5031903;28;20201;-69
2023/06/04 03:46:49;;;;;;;5.00;4.00;;;11.60;99.90;;;;;;5031555;28;20473;-69
2023/06/04 03:49:17;;;;;;;6.73;4.70;;;11.70;99.90;;;;;;5031460;28;20955;-69
2023/06/04 03:51:44;;;;;;;5.20;4.70;;;11.70;99.90;;;;;;5031593;28;20987;-69
2023/06/04 03:54:12;;;;;;;5.07;4.45;;;11.60;99.90;;;;;;5035048;28;20877;-68
2023/06/04 03:56:39;;;;;;;5.17;4.33;;;11.70;99.90;;;;;;5051491;28;20296;-69
2023/06/04 03:59:07;;;;;;;6.47;4.60;;;11.70;99.90;;;;;;5050816;28;20485;-69
2023/06/04 04:01:34;;;;;;;5.50;4.73;;;11.70;99.90;;;;;;5051211;28;20526;-68
2023/06/04 04:04:01;;;;;;;5.07;4.57;;;11.70;99.90;;;;;;5051114;28;20479;-69
2023/06/04 04:06:27;;;;;;;4.90;4.23;;;11.70;99.90;;;;;;5051454;28;20974;-69
2023/06/04 04:08:55;;;;;;;4.53;3.97;;;11.70;99.90;;;;;;5050628;28;20480;-69
2023/06/04 04:11:22;;;;;;;4.60;3.60;;;11.80;99.90;;;;;;5050834;28;20475;-69
2023/06/04 04:13:49;;;;;;;4.10;3.70;;;11.80;99.90;;;;;;5050959;28;20871;-69
2023/06/04 04:16:17;;;;;;;6.80;4.10;;;11.80;99.90;;;;;;5050969;28;20467;-69
2023/06/04 04:18:44;;;;;;;6.17;5.57;;;11.80;99.90;;;;;;5051134;28;20834;-69
2023/06/04 04:21:11;;;;;;;6.20;4.40;;;11.80;99.90;;;;;;5038989;28;20464;-69
2023/06/04 04:23:39;;;;;;;6.67;4.20;;;11.80;99.90;;;;;;5031051;28;20927;-69
2023/06/04 04:26:06;;;;;;;4.77;4.37;;;11.80;99.90;;;;;;5030673;28;20468;-69
2023/06/04 04:28:34;;;;;;;4.73;3.87;;;11.90;99.90;;;;;;5031074;28;20480;-69
2023/06/04 04:31:02;;;;;;;6.73;3.87;;;11.90;99.90;;;;;;5030001;28;20468;-69
2023/06/04 04:33:32;;;;;;;5.70;3.93;;;12.00;99.90;;;;;;5044823;28;20832;-69
2023/06/04 04:35:59;;;;;;;4.40;3.90;;;12.00;99.90;;;;;;5050425;28;20459;-69
2023/06/04 04:38:28;;;;;;;4.63;3.73;;;12.10;99.90;;;;;;5050275;28;20912;-69
2023/06/04 04:40:55;;;;;;;4.03;3.23;;;12.10;99.90;;;;;;5049905;28;20463;-69
2023/06/04 04:43:30;;;;;;;4.30;3.37;;;12.20;99.90;;;;;;5050640;28;20962;-68
2023/06/04 04:45:56;;;;;;;6.63;3.70;;;12.30;99.90;;;;;;5050376;28;20466;-70
2023/06/04 04:48:23;;;;;;;5.53;3.30;;;12.30;99.90;;;;;;5050588;28;20479;-69
2023/06/04 04:50:51;;;;;;;3.60;3.23;;;12.40;99.90;;;;;;5049901;28;20466;-69
2023/06/04 04:53:18;;;;;;;3.67;2.83;;;12.50;99.90;;;;;;5050380;28;21266;-69
2023/06/04 04:55:45;;;;;;;3.03;2.60;;;12.50;99.90;;;;;;5050516;28;20459;-69
2023/06/04 04:58:12;;;;;;;3.97;3.10;;;12.60;99.90;;;;;;5050083;28;20857;-69
2023/06/04 05:00:38;;;;;;;2.80;2.40;;;12.60;99.90;;;;;;5050021;28;20811;-69
2023/06/04 05:03:05;;;;;;;3.10;2.60;;;12.70;99.90;;;;;;5047961;28;20853;-69
2023/06/04 05:05:33;;;;;;;3.33;2.90;;;12.70;99.90;;;;;;5030547;28;20900;-69
2023/06/04 05:08:01;;;;;;;3.97;2.80;;;12.80;99.90;;;;;;5030049;28;20476;-69
2023/06/04 05:10:27;;;;;;;3.50;3.20;;;12.80;99.90;;;;;;5030032;28;20460;-69
2023/06/04 05:12:55;;;;;;;3.27;2.93;;;12.90;99.90;;;;;;5030266;28;20956;-69
2023/06/04 05:15:22;;;;;;;4.03;2.83;;;13.00;99.90;;;;;;5030343;28;20940;-69
2023/06/04 05:17:49;;;;;;;2.50;2.30;;;13.00;99.90;;;;;;5030496;28;20526;-69
2023/06/04 05:20:16;;;;;;;2.73;2.53;;;13.10;99.90;;;;;;5032999;28;20980;-69
2023/06/04 05:22:43;;;;;;;3.50;3.20;;;13.10;99.90;;;;;;5035168;28;20494;-69
2023/06/04 05:25:11;;;;;;;2.90;2.60;;;13.10;99.90;;;;;;5029948;28;20457;-70
2023/06/04 05:27:38;;;;;;;2.40;2.20;;;13.10;99.90;;;;;;5030535;28;21013;-69
2023/06/04 05:30:06;;;;;;;2.80;2.50;;;13.20;99.90;;;;;;5029292;28;21137;-70
2023/06/04 05:32:33;;;;;;;3.23;2.70;;;13.30;99.90;;;;;;5044396;28;20460;-69
2023/06/04 05:35:04;;;;;;;3.40;2.90;;;13.40;99.90;;;;;;5049852;28;20550;-69
2023/06/04 05:37:34;;;;;;;2.93;2.60;;;13.50;99.90;;;;;;5050192;28;21065;-69
2023/06/04 05:40:05;;;;;;;3.23;2.53;;;13.60;99.90;;;;;;5049341;28;20962;-70
2023/06/04 05:42:33;;;;;;;2.63;2.20;;;13.70;99.90;;;;;;5050097;28;20455;-70
2023/06/04 05:44:59;;;;;;;4.40;2.77;;;13.80;99.90;;;;;;5049562;28;20997;-69
2023/06/04 05:47:28;;;;;;;2.70;2.50;;;13.90;99.90;;;;;;5050014;28;20479;-69
2023/06/04 05:49:55;;;;;;;3.30;2.60;;;14.00;99.90;;;;;;5053277;28;20491;-69
2023/06/04 05:52:22;;;;;;;4.53;2.93;;;14.10;99.90;;;;;;5054064;28;20538;-69
2023/06/04 05:54:48;;;;;;;3.53;2.83;;;14.20;99.90;;;;;;5053997;28;20465;-69
2023/06/04 05:57:15;;;;;;;3.73;2.33;;;14.30;99.90;;;;;;5050419;28;20487;-69
2023/06/04 05:59:43;;;;;;;2.77;2.50;;;14.40;99.90;;;;;;5033942;28;20461;-69
2023/06/04 06:02:10;;;;;;;3.70;2.50;;;14.40;99.90;;;;;;5032818;28;20979;-69
2023/06/04 06:04:37;;;;;;;2.63;2.40;;;14.50;99.90;;;;;;5033591;28;21171;-69
2023/06/04 06:07:04;;;;;;;2.43;2.17;;;14.60;99.90;;;;;;5033273;28;20552;-69
2023/06/04 06:09:31;;;;;;;2.80;2.23;;;14.80;99.90;;;;;;5038460;28;20469;-69
2023/06/04 06:11:59;;;;;;;3.00;2.00;;;14.90;99.90;;;;;;5052486;28;20463;-69
2023/06/04 06:14:25;;;;;;;2.37;2.10;;;14.90;99.90;;;;;;5045938;28;20459;-69
2023/06/04 06:16:54;;;;;;;5.57;2.20;;;15.10;99.90;;;;;;5053295;28;20470;-69
2023/06/04 06:19:20;;;;;;;3.70;2.10;;;15.20;99.90;;;;;;5052962;28;20494;-69
2023/06/04 06:21:47;;;;;;;3.10;2.80;;;15.30;99.90;;;;;;5053033;28;20459;-69
2023/06/04 06:24:14;;;;;;;3.00;2.70;;;15.40;99.90;;;;;;5052650;28;20483;-69
2023/06/04 06:26:41;;;;;;;3.57;3.23;;;15.50;99.90;;;;;;5053049;28;20455;-70
2023/06/04 06:29:07;;;;;;;3.30;2.30;;;15.60;99.90;;;;;;5052360;28;20507;-69
2023/06/04 06:31:34;;;;;;;3.37;2.33;;;15.70;99.90;;;;;;5052802;28;20490;-69
2023/06/04 06:34:02;;;;;;;3.77;2.00;;;15.80;99.90;;;;;;5052726;28;20462;-69
2023/06/04 06:36:30;;;;;;;2.30;2.10;;;15.90;99.90;;;;;;5052929;28;20463;-69
2023/06/04 06:38:57;;;;;;;2.30;2.10;;;16.00;99.90;;;;;;5052705;28;20479;-68
2023/06/04 06:41:24;;;;;;;2.77;2.13;;;16.10;99.90;;;;;;5052526;28;20455;-69
2023/06/04 06:43:50;;;;;;;2.10;1.80;;;16.20;99.90;;;;;;5046574;28;20483;-69
2023/06/04 06:46:17;;;;;;;2.60;2.40;;;16.20;99.90;;;;;;5051568;28;20455;-69
2023/06/04 06:48:45;;;;;;;2.30;2.03;;;16.30;99.20;;;;;;5052879;28;20639;-69
2023/06/04 06:51:13;;;;;;;2.40;2.20;;;16.30;99.20;;;;;;5052087;28;20525;-69
2023/06/04 06:53:40;;;;;;;3.77;2.50;;;16.40;99.20;;;;;;5052688;28;20456;-69
2023/06/04 06:56:07;;;;;;;7.23;2.40;;;16.40;99.10;;;;;;5052175;28;20491;-69
2023/06/04 06:58:33;;;;;;;3.33;2.90;;;16.50;99.40;;;;;;5052464;28;20479;-69
2023/06/04 07:01:00;;;;;;;2.27;2.07;;;16.60;99.90;;;;;;5051602;28;20466;-69
2023/06/04 07:03:27;;;;;;;2.90;1.93;;;16.60;99.90;;;;;;5044486;28;20483;-69
2023/06/04 07:05:55;;;;;;;3.67;2.37;;;16.70;99.30;;;;;;5052769;28;20465;-69
2023/06/04 07:08:23;;;;;;;2.23;2.03;;;16.80;99.00;;;;;;5051855;28;20483;-69
2023/06/04 07:10:50;;;;;;;2.80;2.20;;;16.80;99.30;;;;;;5051798;28;20463;-69
2023/06/04 07:13:16;;;;;;;2.40;2.20;;;17.00;99.90;;;;;;5043369;28;20465;-69
2023/06/04 07:15:43;;;;;;;2.30;2.10;;;17.10;99.90;;;;;;5032472;28;20468;-69
2023/06/04 07:18:10;;;;;;;2.40;2.00;;;17.20;99.90;;;;;;5031901;28;20893;-69
2023/06/04 07:20:37;;;;;;;2.80;2.40;;;17.30;99.00;;;;;;5031847;28;20501;-69
2023/06/04 07:23:03;;;;;;;3.77;2.30;;;17.30;99.00;;;;;;5031974;28;20460;-69
2023/06/04 07:25:31;;;;;;;4.60;2.00;;;17.50;98.90;;;;;;5032040;28;20480;-69
2023/06/04 07:27:58;;;;;;;2.90;2.70;;;17.50;98.00;;;;;;5031833;28;20480;-69
2023/06/04 07:30:25;;;;;;;3.60;2.40;;;17.50;97.60;;;;;;5031558;28;20551;-69
2023/06/04 07:32:52;;;;;;;3.50;2.10;;;17.50;97.40;;;;;;5032058;28;20460;-69
2023/06/04 07:35:19;;;;;;;2.80;2.33;;;17.50;98.10;;;;;;5031513;28;20659;-68
2023/06/04 07:37:47;;;;;;;3.60;2.57;;;17.60;98.60;;;;;;5031814;28;20534;-69
2023/06/04 07:40:14;;;;;;;2.60;2.17;;;17.70;98.90;;;;;;5031037;28;20456;-68
2023/06/04 07:42:43;;;;;;;3.33;2.37;;;17.90;99.10;;;;;;5031893;28;20468;-69
2023/06/04 07:45:10;;;;;;;3.10;2.60;;;18.00;99.20;;;;;;5031464;28;21010;-69
2023/06/04 07:47:38;;;;;;;2.17;1.97;;;18.10;98.90;;;;;;5031730;28;20495;-69
2023/06/04 07:50:05;;;;;;;2.70;2.37;;;18.30;98.50;;;;;;5030743;28;20471;-69
2023/06/04 07:52:32;;;;;;;2.50;2.33;;;18.40;99.80;;;;;;5031747;28;20957;-69
2023/06/04 07:55:00;;;;;;;3.07;2.37;;;18.60;99.40;;;;;;5031579;28;20465;-69
2023/06/04 07:57:27;;;;;;;2.30;2.10;;;18.80;98.30;;;;;;5031474;28;20487;-69
2023/06/04 07:59:56;;;;;;;3.13;2.40;;;19.00;98.60;;;;;;5031403;28;20468;-69
2023/06/04 08:02:23;;;;;;;3.43;2.30;;;19.10;98.50;;;;;;5040442;28;20474;-69
2023/06/04 08:04:50;;;;;;;4.37;2.60;;;19.20;98.00;;;;;;5050573;28;20490;-69
2023/06/04 08:07:17;;;;;;;2.40;2.20;;;19.20;98.50;;;;;;5049598;28;20475;-69
2023/06/04 08:09:45;;;;;;;2.47;2.20;;;19.30;98.70;;;;;;5048013;28;20967;-69
2023/06/04 08:12:12;;;;;;;2.30;2.10;;;19.40;97.90;;;;;;5047314;28;20552;-69
2023/06/04 08:14:39;;;;;;;3.70;2.27;;;19.60;98.20;;;;;;5050605;28;20463;-69
2023/06/04 08:17:07;;;;;;;2.47;1.97;;;19.70;99.00;;;;;;5050303;28;20468;-68
2023/06/04 08:19:33;;;;;;;2.60;2.23;;;19.80;98.70;;;;;;5037767;28;20491;-69
2023/06/04 08:22:00;;;;;;;2.40;2.20;;;19.80;98.30;;;;;;5031026;28;20460;-69
2023/06/04 08:24:27;;;;;;;2.30;2.10;;;19.80;97.60;;;;;;5031211;28;20567;-69
2023/06/04 08:26:54;;;;;;;3.13;2.13;;;19.80;98.30;;;;;;5030497;28;20468;-69
2023/06/04 08:29:21;;;;;;;2.60;2.10;;;19.80;97.40;;;;;;5030034;28;20461;-69
2023/06/04 08:31:47;;;;;;;3.67;2.70;;;19.90;97.90;;;;;;5030684;28;20471;-69
2023/06/04 08:34:15;;;;;;;3.10;2.23;;;19.90;97.80;;;;;;5029832;28;20465;-69
2023/06/04 08:36:42;;;;;;;2.70;2.00;;;20.10;96.60;;;;;;5043737;28;21081;-69
2023/06/04 08:39:09;;;;;;;2.03;1.90;;;20.30;96.60;;;;;;5049046;28;20496;-69
2023/06/04 08:41:44;;;;;;;2.27;2.03;;;20.40;98.20;;;;;;5049928;28;20987;-69
2023/06/04 08:44:11;;;;;;;2.67;2.23;;;20.50;97.00;;;;;;5035745;28;20491;-69
2023/06/04 08:46:40;;;;;;;2.30;2.10;;;20.60;96.40;;;;;;5029482;28;20468;-69
2023/06/04 08:49:08;;;;;;;7.27;1.90;;;20.80;97.90;;;;;;5029425;28;20479;-69
2023/06/04 08:51:38;;;;;;;2.40;2.20;;;21.00;98.70;;;;;;5029194;28;20884;-69
2023/06/04 08:54:07;;;;;;;2.50;2.10;;;21.00;96.60;;;;;;5031732;28;20469;-69
2023/06/04 08:56:34;;;;;;;2.43;2.23;;;21.10;96.00;;;;;;5024969;28;20509;-69
2023/06/04 08:59:03;;;;;;;2.20;1.90;;;21.20;96.00;;;;;;5027895;28;20571;-69
2023/06/04 09:01:31;;;;;;;2.27;2.00;;;21.30;97.80;;;;;;5015204;28;20600;-69
2023/06/04 09:04:00;;;;;;;2.87;2.40;;;21.40;95.70;;;;;;5002984;28;20490;-70
2023/06/04 09:06:27;;;;;;;2.50;2.30;;;21.50;98.20;;;;;;5012979;28;20500;-69
2023/06/04 09:08:58;;;;;;;3.80;1.93;;;21.70;96.50;;;;;;5027609;28;20849;-69
2023/06/04 09:11:27;;;;;;;2.80;2.40;;;21.80;96.80;;;;;;5038376;28;20993;-70
2023/06/04 09:13:59;;;;;;;2.67;2.47;;;21.90;95.80;;;;;;5043205;28;20512;-70
2023/06/04 09:16:25;;;;;;;2.50;2.30;;;22.00;95.60;;;;;;5028098;28;20468;-69
2023/06/04 09:18:54;;;;;;;2.50;2.30;;;22.10;95.50;;;;;;5028306;28;20482;-69
2023/06/04 09:21:21;;;;;;;3.10;2.10;;;22.20;96.20;;;;;;5037286;28;20456;-70
2023/06/04 09:23:48;;;;;;;4.50;2.40;;;22.20;96.00;;;;;;5047528;28;20466;-69
2023/06/04 09:26:17;;;;;;;3.57;2.50;;;22.20;94.90;;;;;;5028575;28;20473;-69
2023/06/04 09:28:44;;;;;;;2.80;2.27;;;22.20;95.20;;;;;;5010606;28;20516;-69
2023/06/04 09:31:14;;;;;;;2.50;2.30;;;22.20;96.20;;;;;;5024441;28;20593;-68
2023/06/04 09:33:45;;;;;;;4.93;2.80;;;22.30;94.90;;;;;;5028178;28;20518;-68
2023/06/04 09:36:13;;;;;;;2.70;2.47;;;22.40;95.30;;;;;;5027390;28;20491;-68
2023/06/04 09:38:40;;;;;;;3.33;2.27;;;22.50;95.80;;;;;;5032812;28;20490;-68
2023/06/04 09:41:12;;;;;;;2.50;2.30;;;22.60;95.20;;;;;;5046590;28;20470;-68
2023/06/04 09:43:40;;;;;;;3.77;2.50;;;22.60;95.00;;;;;;5047937;28;20536;-68
2023/06/04 09:46:11;;;;;;;3.30;2.53;;;22.70;95.30;;;;;;5047674;28;20726;-69
2023/06/04 09:48:38;;;;;;;2.80;2.27;;;22.80;95.80;;;;;;5048392;28;20476;-68
2023/06/04 09:51:10;;;;;;;2.80;2.30;;;23.00;95.60;;;;;;5049102;28;20467;-68
2023/06/04 09:53:37;;;;;;;3.50;2.40;;;23.10;95.30;;;;;;5036716;28;20457;-68
2023/06/04 09:56:06;;;;;;;4.80;2.03;;;23.20;97.10;;;;;;5029967;28;20484;-68
2023/06/04 09:58:34;;;;;;;2.00;1.90;;;23.40;95.60;;;;;;5049003;28;20533;-68
2023/06/04 10:01:05;;;;;;;4.33;2.60;;;23.50;96.00;;;;;;5048827;28;20994;-68
2023/06/04 10:03:33;;;;;;;2.97;2.30;;;23.60;95.50;;;;;;5029809;28;21078;-68
2023/06/04 10:06:03;;;;;;;3.60;2.80;;;23.70;94.00;;;;;;5042371;28;20562;-69
2023/06/04 10:08:31;;;;;;;3.17;2.80;;;23.70;93.30;;;;;;5048637;28;20594;-69
2023/06/04 10:11:01;;;;;;;3.60;3.17;;;23.70;93.90;;;;;;5048588;28;20469;-69
2023/06/04 10:13:30;;;;;;;4.00;2.83;;;23.80;93.20;;;;;;5045870;28;20473;-69
2023/06/04 10:15:59;;;;;;;3.30;3.00;;;23.80;94.00;;;;;;5029499;28;20484;-69
2023/06/04 10:18:28;;;;;;;4.50;3.27;;;23.90;95.30;;;;;;5028284;28;20485;-69
2023/06/04 10:20:57;;;;;;;3.10;2.80;;;23.90;94.80;;;;;;5028472;28;20499;-69
2023/06/04 10:23:24;;;;;;;3.03;2.80;;;24.10;94.50;;;;;;5028800;28;20465;-69
2023/06/04 10:25:53;;;;;;;3.70;3.13;;;24.20;93.70;;;;;;5029188;28;21039;-69
2023/06/04 10:28:21;;;;;;;2.90;2.60;;;24.30;94.20;;;;;;5028202;28;20497;-69
2023/06/04 10:30:50;;;;;;;5.43;2.67;;;24.40;95.00;;;;;;5028151;28;20464;-69
2023/06/04 10:33:18;;;;;;;2.53;2.33;;;24.40;94.10;;;;;;5028798;28;20466;-69
2023/06/04 10:35:46;;;;;;;3.23;2.93;;;24.40;92.70;;;;;;5031885;28;20457;-69
2023/06/04 10:38:16;;;;;;;2.73;2.30;;;24.50;93.20;;;;;;5032179;28;20557;-68
2023/06/04 10:40:43;;;;;;;4.00;3.13;;;24.50;91.70;;;;;;5032211;28;20547;-69
2023/06/04 10:43:11;;;;;;;4.03;2.80;;;24.50;93.50;;;;;;5031790;28;20468;-69
2023/06/04 10:45:38;;;;;;;2.83;2.53;;;24.60;94.90;;;;;;5030297;28;20480;-69
2023/06/04 10:48:06;;;;;;;3.37;2.80;;;24.80;95.00;;;;;;5023403;28;20485;-69
2023/06/04 10:50:34;;;;;;;4.40;2.97;;;24.80;91.80;;;;;;5019059;28;20472;-69
2023/06/04 10:53:03;;;;;;;3.27;2.97;;;24.90;92.70;;;;;;5031186;28;20887;-69
2023/06/04 10:55:30;;;;;;;3.17;2.87;;;25.00;93.00;;;;;;5030464;28;21013;-69
2023/06/04 10:57:58;;;;;;;3.30;3.00;;;25.10;92.20;;;;;;5022094;28;20499;-68
2023/06/04 11:00:35;;;;;;;6.10;3.13;;;25.10;92.30;;;;;;5020762;28;20471;-69
2023/06/04 11:03:02;;;;;;;2.97;2.50;;;25.20;90.70;;;;;;5031279;28;20471;-69
2023/06/04 11:05:35;;;;;;;3.40;3.10;;;25.30;93.00;;;;;;5029846;28;20497;-69
2023/06/04 11:08:05;;;;;;;2.63;2.37;;;25.40;93.10;;;;;;5031286;28;20503;-69
2023/06/04 11:10:34;;;;;;;4.00;3.30;;;25.60;91.60;;;;;;5030372;28;20475;-69
2023/06/04 11:13:03;;;;;;;5.17;3.37;;;25.70;91.30;;;;;;5010915;28;20559;-70
2023/06/04 11:15:38;;;;;;;3.80;3.17;;;25.80;90.60;;;;;;5014858;28;20491;-69
2023/06/04 11:18:06;;;;;;;3.20;2.83;;;25.70;92.90;;;;;;5020868;28;20495;-69
2023/06/04 11:20:32;;;;;;;3.17;2.87;;;25.80;92.50;;;;;;5028987;28;20472;-68
2023/06/04 11:23:02;;;;;;;3.80;3.40;;;26.00;92.60;;;;;;5030686;28;20474;-69
2023/06/04 11:25:32;;;;;;;3.50;3.20;;;26.10;94.00;;;;;;5030296;28;20489;-69
2023/06/04 11:28:02;;;;;;;3.30;3.00;;;26.30;92.80;;;;;;5029628;28;20832;-69
2023/06/04 11:30:29;;;;;;;3.20;3.00;;;26.40;93.20;;;;;;5019314;28;20502;-70
2023/06/04 11:33:03;;;;;;;3.40;3.10;;;26.50;91.00;;;;;;5030525;28;20471;-70
2023/06/04 11:35:30;;;;;;;3.60;3.30;;;26.50;91.50;;;;;;5029471;28;20467;-69
2023/06/04 11:37:59;;;;;;;3.07;2.77;;;26.40;90.60;;;;;;5030869;28;20482;-69
2023/06/04 11:40:27;;;;;;;3.33;3.03;;;26.30;90.30;;;;;;5039458;28;20495;-69
2023/06/04 11:42:56;;;;;;;4.03;3.17;;;26.30;91.80;;;;;;5050521;28;20489;-69
2023/06/04 11:45:23;;;;;;;3.90;3.47;;;26.50;91.40;;;;;;5049562;28;20842;-69
2023/06/04 11:47:52;;;;;;;3.73;3.33;;;26.50;88.10;;;;;;5051107;28;20566;-69
2023/06/04 11:50:18;;;;;;;3.93;3.50;;;26.10;84.80;;;;;;5049190;28;20471;-69
2023/06/04 11:52:46;;;;;;;3.37;3.07;;;25.80;91.10;;;;;;5051024;28;20469;-69
2023/06/04 11:55:13;;;;;;;3.40;2.93;;;25.60;92.40;;;;;;5050155;28;20972;-69
2023/06/04 11:57:41;;;;;;;3.07;2.83;;;25.60;91.90;;;;;;5050364;28;20486;-69
2023/06/04 12:00:10;;;;;;;3.83;3.00;;;25.90;92.90;;;;;;5049534;28;20461;-68
2023/06/04 12:02:37;;;;;;;3.47;2.90;;;26.20;91.30;;;;;;5050171;28;20468;-69
2023/06/04 12:05:14;;;;;;;6.40;5.33;;;26.30;90.30;;;;;;5049962;28;20994;-68
2023/06/04 12:07:41;;;;;;;4.60;3.40;;;26.30;90.50;;;;;;5049726;28;20495;-69
2023/06/04 12:10:09;;;;;;;3.03;2.83;;;26.30;91.20;;;;;;5049904;28;20470;-69
2023/06/04 12:12:36;;;;;;;3.20;2.90;;;26.50;90.70;;;;;;5042244;28;20472;-69
2023/06/04 12:15:05;;;;;;;3.50;3.20;;;26.40;90.00;;;;;;5030268;28;20465;-69
2023/06/04 12:17:33;;;;;;;3.80;2.57;;;26.30;91.50;;;;;;5029401;28;21064;-69
2023/06/04 12:20:01;;;;;;;3.50;3.20;;;26.50;90.50;;;;;;5028552;28;20462;-69
2023/06/04 12:22:28;;;;;;;3.40;3.10;;;26.70;88.10;;;;;;5029474;28;20475;-69
2023/06/04 12:24:56;;;;;;;3.87;3.47;;;26.80;90.50;;;;;;5029828;28;20467;-69
2023/06/04 12:27:25;;;;;;;3.50;2.87;;;27.10;91.30;;;;;;5029620;28;20478;-69
2023/06/04 12:29:56;;;;;;;3.23;2.93;;;27.20;91.60;;;;;;5029893;28;21000;-69
2023/06/04 12:32:23;;;;;;;2.73;2.50;;;27.30;86.80;;;;;;5029466;28;20462;-69
2023/06/04 12:34:51;;;;;;;3.53;3.10;;;27.30;90.50;;;;;;5030247;28;20463;-69
2023/06/04 12:37:18;;;;;;;3.20;2.90;;;27.50;91.40;;;;;;5029999;28;20483;-69
2023/06/04 12:39:45;;;;;;;2.83;2.60;;;27.40;87.70;;;;;;5029902;28;20474;-70
2023/06/04 12:42:12;;;;;;;3.07;2.77;;;27.20;87.80;;;;;;5030097;28;20467;-70
2023/06/04 12:44:40;;;;;;;3.90;3.20;;;27.10;86.60;;;;;;5029649;28;20466;-70
2023/06/04 12:47:07;;;;;;;4.73;2.80;;;27.10;84.90;;;;;;5029916;28;20480;-69
2023/06/04 12:49:34;;;;;;;3.30;3.00;;;27.00;88.00;;;;;;5026071;28;20473;-69